Time;durP1;ratioP1;P1;durP2;ratioP2;P2;SDS_P1;SDS_P2;PMS_P1;PMS_P2;Temp;Humidity;BMP_temperature;BMP_pressure;BME280_temperature;BME280_humidity;BME280_pressure;Samples;Min_cycle;Max_cycle;Signal;HPM_P1;HPM_P2
2023/02/26 00:01:41;;;;;;;4.25;1.70;;;;;;;;;;5031673;28;20079;-62
2023/02/26 00:04:08;;;;;;;5.40;1.92;;;;;;;;;;5045371;28;20504;-61
2023/02/26 00:06:35;;;;;;;5.70;1.83;;;;;;;;;;5052235;28;20489;-62
2023/02/26 00:09:02;;;;;;;4.38;1.70;;;;;;;;;;5032867;28;20040;-61
2023/02/26 00:11:28;;;;;;;3.92;1.63;;;;;;;;;;5032233;28;20033;-62
2023/02/26 00:13:55;;;;;;;6.63;1.95;;;;;;;;;;5032205;28;20053;-62
2023/02/26 00:16:21;;;;;;;5.72;1.85;;;;;;;;;;5032357;28;20029;-62
2023/02/26 00:18:47;;;;;;;4.20;1.90;;;;;;;;;;5031989;28;20039;-62
2023/02/26 00:21:16;;;;;;;5.20;1.63;;;;;;;;;;5031842;28;20033;-62
2023/02/26 00:23:42;;;;;;;4.43;2.00;;;;;;;;;;5032271;28;20049;-62
2023/02/26 00:26:08;;;;;;;5.18;1.52;;;;;;;;;;5032522;28;20470;-62
2023/02/26 00:28:35;;;;;;;7.28;2.53;;;;;;;;;;5031267;28;20486;-62
2023/02/26 00:31:01;;;;;;;6.75;1.63;;;;;;;;;;5031739;28;20025;-62
2023/02/26 00:33:27;;;;;;;4.03;1.63;;;;;;;;;;5031433;28;20131;-62
2023/02/26 00:35:55;;;;;;;4.65;1.73;;;;;;;;;;5031688;28;20037;-62
2023/02/26 00:38:22;;;;;;;3.85;1.70;;;;;;;;;;5032286;28;20037;-62
2023/02/26 00:40:52;;;;;;;2.53;1.50;;;;;;;;;;5051936;28;20504;-61
2023/02/26 00:43:21;;;;;;;6.38;1.83;;;;;;;;;;5048970;28;20025;-62
2023/02/26 00:46:06;;;;;;;4.65;1.58;;;;;;;;;;5031743;28;20033;-62
2023/02/26 00:48:34;;;;;;;4.28;1.63;;;;;;;;;;5031408;28;20663;-62
2023/02/26 00:51:21;;;;;;;4.00;1.48;;;;;;;;;;5031907;28;20018;-62
2023/02/26 00:53:51;;;;;;;3.42;1.40;;;;;;;;;;5026512;28;20029;-62
2023/02/26 00:56:18;;;;;;;4.80;1.75;;;;;;;;;;5031632;28;20029;-62
2023/02/26 00:58:44;;;;;;;3.35;1.33;;;;;;;;;;5031387;28;20060;-62
2023/02/26 01:01:10;;;;;;;4.43;1.80;;;;;;;;;;5031221;28;20505;-62
2023/02/26 01:03:36;;;;;;;7.82;2.13;;;;;;;;;;5030757;28;20026;-62
2023/02/26 01:06:03;;;;;;;5.55;1.77;;;;;;;;;;5031262;28;20037;-62
2023/02/26 01:08:32;;;;;;;6.13;1.90;;;;;;;;;;5030782;28;20040;-61
2023/02/26 01:10:59;;;;;;;3.92;1.88;;;;;;;;;;5051577;28;20035;-61
2023/02/26 01:13:25;;;;;;;4.93;1.65;;;;;;;;;;5043468;28;20033;-62
2023/02/26 01:15:55;;;;;;;4.43;1.67;;;;;;;;;;5031434;28;20056;-62
2023/02/26 01:18:31;;;;;;;5.63;2.45;;;;;;;;;;5031276;28;20091;-62
2023/02/26 01:21:02;;;;;;;4.03;1.90;;;;;;;;;;5031283;28;20022;-62
2023/02/26 01:23:30;;;;;;;4.93;1.92;;;;;;;;;;5031248;28;20076;-62
2023/02/26 01:25:58;;;;;;;3.95;1.42;;;;;;;;;;5041264;28;20017;-62
2023/02/26 01:28:24;;;;;;;5.10;2.28;;;;;;;;;;5050808;28;20033;-62
2023/02/26 01:30:52;;;;;;;4.53;1.80;;;;;;;;;;5051091;28;20059;-62
2023/02/26 01:33:37;;;;;;;5.32;1.80;;;;;;;;;;5050932;28;20055;-62
2023/02/26 01:36:08;;;;;;;3.85;2.00;;;;;;;;;;5051128;28;20096;-62
2023/02/26 01:38:55;;;;;;;4.45;1.73;;;;;;;;;;5050836;28;20033;-62
2023/02/26 01:41:21;;;;;;;4.05;1.83;;;;;;;;;;5050698;28;20104;-62
2023/02/26 01:43:57;;;;;;;3.85;1.85;;;;;;;;;;5050846;28;20125;-63
2023/02/26 01:46:27;;;;;;;5.93;2.30;;;;;;;;;;5050803;28;20421;-62
2023/02/26 01:48:55;;;;;;;4.22;1.60;;;;;;;;;;5050915;28;20455;-62
2023/02/26 01:51:41;;;;;;;3.42;1.80;;;;;;;;;;5050425;28;20029;-62
2023/02/26 01:54:07;;;;;;;5.72;2.13;;;;;;;;;;5051115;28;20074;-62
2023/02/26 01:56:34;;;;;;;3.88;1.80;;;;;;;;;;5043139;28;20094;-61
2023/02/26 01:59:04;;;;;;;6.05;1.73;;;;;;;;;;5030149;28;20532;-62
2023/02/26 02:01:30;;;;;;;5.65;2.38;;;;;;;;;;5030305;28;20406;-62
2023/02/26 02:03:56;;;;;;;5.68;2.40;;;;;;;;;;5050533;28;20044;-62
2023/02/26 02:06:24;;;;;;;5.00;2.00;;;;;;;;;;5043069;28;20584;-62
2023/02/26 02:08:50;;;;;;;4.78;1.80;;;;;;;;;;5030431;28;20044;-61
2023/02/26 02:11:17;;;;;;;3.60;1.95;;;;;;;;;;5028744;28;20029;-62
2023/02/26 02:14:01;;;;;;;4.38;1.90;;;;;;;;;;5029288;28;20032;-62
2023/02/26 02:16:42;;;;;;;6.95;2.20;;;;;;;;;;5030213;28;20041;-62
2023/02/26 02:19:27;;;;;;;3.92;1.98;;;;;;;;;;5042943;28;20033;-62
2023/02/26 02:22:05;;;;;;;6.30;2.15;;;;;;;;;;5050638;28;20029;-62
2023/02/26 02:24:41;;;;;;;4.50;1.67;;;;;;;;;;5051162;28;20108;-62
2023/02/26 02:27:18;;;;;;;4.85;1.92;;;;;;;;;;5054542;28;20047;-62
2023/02/26 02:29:57;;;;;;;7.15;2.15;;;;;;;;;;5054527;28;20087;-62
2023/02/26 02:32:23;;;;;;;4.55;2.00;;;;;;;;;;5054259;28;20078;-62
2023/02/26 02:34:52;;;;;;;3.65;1.85;;;;;;;;;;5054169;28;20033;-62
2023/02/26 02:37:48;;;;;;;5.38;2.42;;;;;;;;;;5054051;28;20082;-62
2023/02/26 02:40:19;;;;;;;3.75;1.55;;;;;;;;;;5049406;28;20056;-62
2023/02/26 02:43:00;;;;;;;4.63;1.92;;;;;;;;;;5054262;28;20027;-62
2023/02/26 02:45:33;;;;;;;4.50;2.08;;;;;;;;;;5040560;28;20436;-62
2023/02/26 02:48:04;;;;;;;5.82;2.33;;;;;;;;;;5034149;28;20101;-61
2023/02/26 02:50:44;;;;;;;4.20;1.80;;;;;;;;;;5033717;28;20057;-62
2023/02/26 02:53:14;;;;;;;3.85;2.05;;;;;;;;;;5034145;28;20131;-62
2023/02/26 02:55:44;;;;;;;5.00;1.60;;;;;;;;;;5034004;28;20025;-61
2023/02/26 02:58:30;;;;;;;3.60;1.90;;;;;;;;;;5033932;28;20148;-62
2023/02/26 03:01:00;;;;;;;3.95;1.73;;;;;;;;;;5033685;28;20049;-62
2023/02/26 03:03:30;;;;;;;5.03;1.85;;;;;;;;;;5033327;28;20025;-61
2023/02/26 03:05:56;;;;;;;3.88;2.08;;;;;;;;;;5033586;28;20449;-62
2023/02/26 03:08:26;;;;;;;4.68;1.75;;;;;;;;;;5032890;28;20033;-62
2023/02/26 03:10:52;;;;;;;3.92;1.90;;;;;;;;;;5043880;28;20052;-62
2023/02/26 03:13:24;;;;;;;3.70;1.73;;;;;;;;;;5053301;28;20032;-62
2023/02/26 03:15:49;;;;;;;4.75;1.80;;;;;;;;;;5035680;28;20021;-62
2023/02/26 03:18:30;;;;;;;5.68;1.92;;;;;;;;;;5033286;28;20041;-62
2023/02/26 03:21:15;;;;;;;3.00;1.70;;;;;;;;;;5033684;28;20053;-62
2023/02/26 03:23:55;;;;;;;5.65;1.70;;;;;;;;;;5033769;28;20068;-62
2023/02/26 03:26:29;;;;;;;4.05;1.95;;;;;;;;;;5037252;28;20017;-62
2023/02/26 03:29:04;;;;;;;3.90;2.10;;;;;;;;;;5053317;28;20024;-62
2023/02/26 03:31:36;;;;;;;3.80;1.73;;;;;;;;;;5052872;28;20036;-62
2023/02/26 03:34:08;;;;;;;3.40;1.80;;;;;;;;;;5053169;28;20051;-62
2023/02/26 03:36:36;;;;;;;4.25;1.58;;;;;;;;;;5051593;28;20036;-61
2023/02/26 03:39:32;;;;;;;3.13;1.70;;;;;;;;;;5052987;28;20057;-61
2023/02/26 03:42:03;;;;;;;4.03;1.95;;;;;;;;;;5048372;28;20041;-61
2023/02/26 03:44:32;;;;;;;3.75;1.90;;;;;;;;;;5052948;28;20385;-62
2023/02/26 03:47:00;;;;;;;5.22;1.95;;;;;;;;;;5053097;28;20481;-62
2023/02/26 03:49:34;;;;;;;3.47;1.83;;;;;;;;;;5036419;28;20101;-62
2023/02/26 03:52:01;;;;;;;4.53;2.28;;;;;;;;;;5032541;28;20040;-62
2023/02/26 03:54:30;;;;;;;5.95;2.03;;;;;;;;;;5032139;28;20029;-62
2023/02/26 03:56:56;;;;;;;3.10;1.50;;;;;;;;;;5032382;28;20033;-62
2023/02/26 03:59:23;;;;;;;4.47;1.63;;;;;;;;;;5032353;28;20038;-62
2023/02/26 04:01:49;;;;;;;4.78;2.15;;;;;;;;;;5032400;28;20075;-62
2023/02/26 04:04:24;;;;;;;4.35;1.92;;;;;;;;;;5032157;28;20030;-62
2023/02/26 04:06:52;;;;;;;4.20;1.90;;;;;;;;;;5032758;28;20036;-62
2023/02/26 04:09:19;;;;;;;3.15;1.35;;;;;;;;;;5032170;28;20150;-62
2023/02/26 04:11:45;;;;;;;3.42;1.30;;;;;;;;;;5031969;28;20083;-62
2023/02/26 04:14:11;;;;;;;4.68;1.50;;;;;;;;;;5032589;28;20097;-62
2023/02/26 04:16:37;;;;;;;3.50;2.08;;;;;;;;;;5032869;28;20108;-62
2023/02/26 04:19:03;;;;;;;4.15;1.90;;;;;;;;;;5031991;28;20405;-62
2023/02/26 04:21:29;;;;;;;5.78;2.35;;;;;;;;;;5031868;28;20033;-62
2023/02/26 04:23:55;;;;;;;2.95;1.10;;;;;;;;;;5032252;28;20105;-62
2023/02/26 04:26:21;;;;;;;4.78;1.60;;;;;;;;;;5030821;28;20112;-62
2023/02/26 04:28:47;;;;;;;3.30;1.40;;;;;;;;;;5031902;28;20032;-62
2023/02/26 04:31:14;;;;;;;5.00;1.90;;;;;;;;;;5031935;28;20458;-62
2023/02/26 04:33:40;;;;;;;5.50;2.20;;;;;;;;;;5032198;28;20369;-62
2023/02/26 04:36:06;;;;;;;4.20;1.33;;;;;;;;;;5032186;28;20032;-62
2023/02/26 04:38:32;;;;;;;3.00;1.27;;;;;;;;;;5031288;28;20155;-62
2023/02/26 04:40:58;;;;;;;4.28;1.63;;;;;;;;;;5032089;28;20032;-62
2023/02/26 04:43:24;;;;;;;3.55;1.35;;;;;;;;;;5031470;28;20104;-62
2023/02/26 04:45:50;;;;;;;2.90;1.27;;;;;;;;;;5031870;28;20130;-62
2023/02/26 04:48:17;;;;;;;3.47;1.52;;;;;;;;;;5030932;28;20108;-62
2023/02/26 04:50:43;;;;;;;3.47;1.30;;;;;;;;;;5031543;28;20031;-62
2023/02/26 04:53:09;;;;;;;4.15;1.45;;;;;;;;;;5031318;28;20031;-62
2023/02/26 04:55:36;;;;;;;2.85;1.30;;;;;;;;;;5031278;28;20104;-62
2023/02/26 04:58:02;;;;;;;4.63;2.08;;;;;;;;;;5031347;28;20026;-62
2023/02/26 05:00:28;;;;;;;4.80;1.15;;;;;;;;;;5031290;28;20032;-62
2023/02/26 05:02:54;;;;;;;3.33;1.60;;;;;;;;;;5031244;28;20029;-62
2023/02/26 05:05:20;;;;;;;4.07;1.50;;;;;;;;;;5031442;28;20097;-62
2023/02/26 05:07:46;;;;;;;3.33;1.40;;;;;;;;;;5030837;28;20026;-62
2023/02/26 05:10:12;;;;;;;4.07;1.70;;;;;;;;;;5031700;28;20033;-62
2023/02/26 05:12:38;;;;;;;3.45;1.27;;;;;;;;;;5030900;28;20475;-62
2023/02/26 05:15:05;;;;;;;3.78;1.25;;;;;;;;;;5031536;28;20036;-62
2023/02/26 05:17:30;;;;;;;4.47;1.38;;;;;;;;;;5030842;28;20030;-61
2023/02/26 05:19:56;;;;;;;3.30;1.40;;;;;;;;;;5030791;28;20021;-61
2023/02/26 05:22:22;;;;;;;3.63;1.60;;;;;;;;;;5043892;28;20493;-62
2023/02/26 05:24:49;;;;;;;5.05;1.52;;;;;;;;;;5051213;28;20028;-61
2023/02/26 05:27:15;;;;;;;3.10;1.10;;;;;;;;;;5031044;28;20112;-61
2023/02/26 05:29:43;;;;;;;3.63;1.63;;;;;;;;;;5031587;28;20025;-62
2023/02/26 05:32:09;;;;;;;3.63;1.30;;;;;;;;;;5031413;28;20029;-61
2023/02/26 05:34:35;;;;;;;2.15;1.00;;;;;;;;;;5030899;28;20106;-62
2023/02/26 05:37:02;;;;;;;4.60;1.27;;;;;;;;;;5030949;28;20021;-61
2023/02/26 05:39:28;;;;;;;3.88;1.20;;;;;;;;;;5050748;28;20094;-62
2023/02/26 05:41:55;;;;;;;2.90;1.30;;;;;;;;;;5050742;28;20024;-62
2023/02/26 05:44:21;;;;;;;3.95;1.27;;;;;;;;;;5050682;28;20029;-62
2023/02/26 05:46:47;;;;;;;4.13;1.40;;;;;;;;;;5050892;28;20100;-62
2023/02/26 05:49:13;;;;;;;3.60;1.48;;;;;;;;;;5051119;28;20059;-62
2023/02/26 05:51:41;;;;;;;3.28;1.10;;;;;;;;;;5046242;28;20025;-62
2023/02/26 05:54:07;;;;;;;2.17;1.25;;;;;;;;;;5030504;28;20037;-62
2023/02/26 05:56:33;;;;;;;3.03;1.30;;;;;;;;;;5030488;28;20037;-62
2023/02/26 05:58:59;;;;;;;4.75;1.50;;;;;;;;;;5030200;28;20041;-62
2023/02/26 06:01:25;;;;;;;3.22;1.10;;;;;;;;;;5034075;28;20037;-61
2023/02/26 06:03:51;;;;;;;3.58;1.10;;;;;;;;;;5034492;28;20105;-62
2023/02/26 06:06:17;;;;;;;3.40;1.17;;;;;;;;;;5052998;28;20032;-62
2023/02/26 06:08:44;;;;;;;4.15;1.27;;;;;;;;;;5049194;28;20029;-62
2023/02/26 06:11:10;;;;;;;3.00;1.40;;;;;;;;;;5035096;28;20033;-62
2023/02/26 06:13:36;;;;;;;3.63;1.20;;;;;;;;;;5034164;28;20029;-61
2023/02/26 06:16:02;;;;;;;7.53;1.27;;;;;;;;;;5034093;28;20100;-62
2023/02/26 06:18:28;;;;;;;4.85;1.05;;;;;;;;;;5034128;28;20116;-62
2023/02/26 06:20:54;;;;;;;3.50;1.23;;;;;;;;;;5034181;28;20026;-62
2023/02/26 06:23:20;;;;;;;3.72;1.60;;;;;;;;;;5033661;28;20025;-62
2023/02/26 06:25:46;;;;;;;5.43;1.65;;;;;;;;;;5033826;28;20079;-62
2023/02/26 06:28:12;;;;;;;2.42;1.05;;;;;;;;;;5034790;28;20064;-62
2023/02/26 06:30:38;;;;;;;3.10;1.23;;;;;;;;;;5033477;28;20094;-62
2023/02/26 06:33:04;;;;;;;4.32;1.20;;;;;;;;;;5034204;28;20575;-62
2023/02/26 06:35:30;;;;;;;3.03;1.02;;;;;;;;;;5033836;28;20030;-62
2023/02/26 06:37:56;;;;;;;3.97;0.95;;;;;;;;;;5034009;28;20120;-61
2023/02/26 06:40:22;;;;;;;2.95;1.00;;;;;;;;;;5033947;28;20033;-62
2023/02/26 06:42:48;;;;;;;5.80;1.50;;;;;;;;;;5033957;28;20026;-62
2023/02/26 06:45:14;;;;;;;5.20;1.15;;;;;;;;;;5033884;28;20056;-61
2023/02/26 06:47:40;;;;;;;4.07;1.10;;;;;;;;;;5034650;28;20037;-62
2023/02/26 06:50:07;;;;;;;2.55;1.00;;;;;;;;;;5033933;28;20025;-62
2023/02/26 06:52:33;;;;;;;5.00;1.40;;;;;;;;;;5019052;28;20025;-62
2023/02/26 06:54:59;;;;;;;2.58;1.10;;;;;;;;;;5033177;28;20478;-62
2023/02/26 06:57:25;;;;;;;3.78;1.70;;;;;;;;;;5033219;28;20036;-62
2023/02/26 06:59:51;;;;;;;4.90;1.33;;;;;;;;;;5034064;28;20103;-62
2023/02/26 07:02:21;;;;;;;3.58;1.15;;;;;;;;;;5033200;28;20025;-62
2023/02/26 07:04:47;;;;;;;4.75;1.00;;;;;;;;;;5033450;28;20029;-62
2023/02/26 07:07:13;;;;;;;3.22;1.00;;;;;;;;;;5033621;28;20064;-63
2023/02/26 07:09:39;;;;;;;3.42;1.40;;;;;;;;;;5048570;28;20037;-62
2023/02/26 07:12:06;;;;;;;3.33;1.15;;;;;;;;;;5053485;28;20435;-62
2023/02/26 07:14:32;;;;;;;5.07;1.27;;;;;;;;;;5036221;28;20470;-62
2023/02/26 07:16:58;;;;;;;3.00;0.90;;;;;;;;;;5014110;28;20037;-62
2023/02/26 07:19:25;;;;;;;3.67;1.13;;;;;;;;;;5026844;28;20037;-62
2023/02/26 07:21:50;;;;;;;5.68;1.30;;;;;;;;;;5053525;28;20021;-62
2023/02/26 07:24:16;;;;;;;3.90;1.15;;;;;;;;;;5053459;28;20383;-62
2023/02/26 07:26:42;;;;;;;5.05;1.30;;;;;;;;;;5053588;28;20021;-62
2023/02/26 07:29:08;;;;;;;3.78;1.00;;;;;;;;;;5053462;28;20032;-61
2023/02/26 07:31:35;;;;;;;4.13;1.25;;;;;;;;;;5047546;28;20048;-62
2023/02/26 07:34:02;;;;;;;3.22;1.10;;;;;;;;;;5033216;28;20482;-62
2023/02/26 07:36:28;;;;;;;3.17;1.00;;;;;;;;;;5033105;28;20026;-62
2023/02/26 07:38:54;;;;;;;4.03;1.20;;;;;;;;;;5033604;28;20448;-62
2023/02/26 07:41:20;;;;;;;4.35;0.80;;;;;;;;;;5032755;28;20431;-62
2023/02/26 07:43:46;;;;;;;3.28;0.90;;;;;;;;;;5033374;28;20033;-62
2023/02/26 07:46:12;;;;;;;4.72;1.20;;;;;;;;;;5033349;28;20113;-61
2023/02/26 07:48:38;;;;;;;3.33;1.23;;;;;;;;;;5032614;28;20409;-61
2023/02/26 07:51:06;;;;;;;6.50;1.35;;;;;;;;;;5032742;28;20025;-62
2023/02/26 07:53:32;;;;;;;4.63;1.23;;;;;;;;;;5032265;28;20037;-61
2023/02/26 07:55:58;;;;;;;3.60;1.20;;;;;;;;;;5032500;28;20048;-62
2023/02/26 07:58:24;;;;;;;3.47;0.93;;;;;;;;;;5032856;28;20037;-62
2023/02/26 08:00:51;;;;;;;2.80;0.98;;;;;;;;;;5032581;28;20033;-63
2023/02/26 08:03:17;;;;;;;3.28;1.00;;;;;;;;;;5031992;28;20025;-62
2023/02/26 08:05:43;;;;;;;2.60;0.85;;;;;;;;;;5032372;28;20033;-62
2023/02/26 08:08:10;;;;;;;5.15;1.00;;;;;;;;;;5032346;28;20149;-62
2023/02/26 08:10:36;;;;;;;4.20;1.38;;;;;;;;;;5031796;28;20041;-63
2023/02/26 08:13:02;;;;;;;4.15;1.00;;;;;;;;;;5033442;28;20056;-63
2023/02/26 08:15:28;;;;;;;3.78;1.00;;;;;;;;;;5032471;28;20474;-63
2023/02/26 08:17:54;;;;;;;3.72;1.05;;;;;;;;;;5031998;28;20029;-63
2023/02/26 08:20:20;;;;;;;2.83;1.00;;;;;;;;;;5031855;28;20117;-63
2023/02/26 08:22:46;;;;;;;3.85;1.05;;;;;;;;;;5031496;28;20021;-64
2023/02/26 08:25:12;;;;;;;5.45;1.23;;;;;;;;;;5032021;28;20117;-63
2023/02/26 08:27:38;;;;;;;3.25;0.68;;;;;;;;;;5030623;28;20450;-64
2023/02/26 08:30:06;;;;;;;6.03;1.20;;;;;;;;;;5031591;28;20088;-64
2023/02/26 08:32:32;;;;;;;3.45;1.38;;;;;;;;;;5031975;28;20541;-63
2023/02/26 08:34:58;;;;;;;6.70;1.48;;;;;;;;;;5031611;28;20083;-64
2023/02/26 08:37:24;;;;;;;4.15;0.95;;;;;;;;;;5031602;28;20393;-64
2023/02/26 08:39:51;;;;;;;1.92;0.95;;;;;;;;;;5031957;28;20029;-64
2023/02/26 08:42:19;;;;;;;6.47;0.98;;;;;;;;;;5031410;28;20021;-63
2023/02/26 08:44:45;;;;;;;8.50;1.27;;;;;;;;;;5043828;28;20029;-64
2023/02/26 08:47:11;;;;;;;2.38;1.00;;;;;;;;;;5044855;28;20485;-64
2023/02/26 08:49:37;;;;;;;5.50;0.90;;;;;;;;;;5031822;28;20022;-63
2023/02/26 08:52:03;;;;;;;2.85;1.00;;;;;;;;;;5031254;28;20040;-63
2023/02/26 08:54:29;;;;;;;4.88;1.10;;;;;;;;;;5030725;28;20505;-63
2023/02/26 08:56:56;;;;;;;7.18;1.13;;;;;;;;;;5031650;28;20091;-63
2023/02/26 08:59:22;;;;;;;3.95;0.95;;;;;;;;;;5031021;28;20524;-63
2023/02/26 09:01:48;;;;;;;4.97;0.80;;;;;;;;;;5031252;28;20035;-63
2023/02/26 09:04:14;;;;;;;5.22;1.02;;;;;;;;;;5031589;28;20104;-63
2023/02/26 09:06:40;;;;;;;7.10;1.05;;;;;;;;;;5031854;28;20025;-64
2023/02/26 09:09:07;;;;;;;4.10;0.80;;;;;;;;;;5031084;28;20036;-63
2023/02/26 09:11:33;;;;;;;4.80;0.93;;;;;;;;;;5029713;28;20029;-64
2023/02/26 09:14:01;;;;;;;5.20;1.48;;;;;;;;;;5031312;28;20042;-64
2023/02/26 09:16:27;;;;;;;8.68;1.83;;;;;;;;;;5031139;28;20033;-63
2023/02/26 09:18:53;;;;;;;7.70;1.67;;;;;;;;;;5031155;28;20478;-63
2023/02/26 09:21:19;;;;;;;11.38;2.10;;;;;;;;;;5031192;28;20082;-63
2023/02/26 09:23:45;;;;;;;16.80;2.65;;;;;;;;;;5030951;28;20405;-64
2023/02/26 09:26:11;;;;;;;13.40;2.17;;;;;;;;;;5031679;28;20022;-65
2023/02/26 09:28:37;;;;;;;10.40;2.20;;;;;;;;;;5031088;28;20032;-64
2023/02/26 09:31:03;;;;;;;12.85;2.10;;;;;;;;;;5031189;28;20394;-65
2023/02/26 09:33:29;;;;;;;10.52;2.95;;;;;;;;;;5030545;28;20052;-64
2023/02/26 09:35:55;;;;;;;11.27;2.38;;;;;;;;;;5031011;28;20099;-64
2023/02/26 09:38:21;;;;;;;12.93;2.20;;;;;;;;;;5030966;28;20034;-64
2023/02/26 09:40:58;;;;;;;16.67;2.38;;;;;;;;;;5031086;28;20471;-64
2023/02/26 09:43:42;;;;;;;11.93;1.95;;;;;;;;;;5030956;28;20045;-64
2023/02/26 09:46:20;;;;;;;12.20;2.25;;;;;;;;;;5030752;28;20096;-64
2023/02/26 09:48:48;;;;;;;7.35;2.17;;;;;;;;;;5030816;28;20155;-64
2023/02/26 09:51:17;;;;;;;9.98;2.75;;;;;;;;;;5031412;28;20033;-64
2023/02/26 09:53:43;;;;;;;10.45;2.35;;;;;;;;;;5031474;28;20124;-64
2023/02/26 09:56:26;;;;;;;8.43;2.33;;;;;;;;;;5029390;28;20033;-64
2023/02/26 09:58:54;;;;;;;9.05;1.30;;;;;;;;;;5030800;28;20044;-63
2023/02/26 10:01:42;;;;;;;9.50;1.50;;;;;;;;;;5030636;28;20466;-63
2023/02/26 10:04:18;;;;;;;8.70;1.90;;;;;;;;;;5030502;28;20041;-63
2023/02/26 10:06:54;;;;;;;10.65;1.65;;;;;;;;;;5031013;28;20026;-64
2023/02/26 10:09:19;;;;;;;;;;;;;;;;;;5030914;28;20033;-63
2023/02/26 10:11:52;;;;;;;8.65;1.70;;;;;;;;;;5030876;28;20356;-63
2023/02/26 10:14:24;;;;;;;10.02;1.48;;;;;;;;;;5030717;28;20022;-64
2023/02/26 10:16:52;;;;;;;8.73;1.95;;;;;;;;;;5030777;28;20493;-63
2023/02/26 10:19:20;;;;;;;8.75;1.40;;;;;;;;;;5029135;28;20500;-61
2023/02/26 10:21:51;;;;;;;5.18;1.60;;;;;;;;;;5030765;28;20057;-61
2023/02/26 10:24:26;;;;;;;8.77;1.63;;;;;;;;;;5030689;28;20021;-63
2023/02/26 10:27:00;;;;;;;6.22;1.48;;;;;;;;;;5030881;28;20026;-63
2023/02/26 10:29:32;;;;;;;11.13;1.35;;;;;;;;;;5030450;28;20025;-63
2023/02/26 10:32:01;;;;;;;6.10;1.13;;;;;;;;;;5030765;28;20031;-62
2023/02/26 10:34:31;;;;;;;7.70;1.40;;;;;;;;;;5030498;28;20097;-62
2023/02/26 10:37:10;;;;;;;6.40;0.98;;;;;;;;;;5029724;28;20045;-63
2023/02/26 10:39:55;;;;;;;5.85;1.15;;;;;;;;;;5011391;28;20156;-62
2023/02/26 10:42:26;;;;;;;9.50;1.17;;;;;;;;;;5011379;28;20022;-63
2023/02/26 10:44:55;;;;;;;3.97;0.98;;;;;;;;;;5009941;28;20041;-62
2023/02/26 10:47:43;;;;;;;3.95;1.13;;;;;;;;;;5015041;28;20483;-63
2023/02/26 10:50:11;;;;;;;4.72;1.00;;;;;;;;;;5015109;28;20021;-62
2023/02/26 10:52:37;;;;;;;7.45;1.50;;;;;;;;;;5015036;28;20033;-62
2023/02/26 10:55:06;;;;;;;4.78;1.40;;;;;;;;;;5014828;28;20037;-62
2023/02/26 10:57:35;;;;;;;6.93;1.65;;;;;;;;;;5014849;28;20075;-62
2023/02/26 11:00:02;;;;;;;5.53;1.10;;;;;;;;;;5014824;28;20115;-62
2023/02/26 11:02:31;;;;;;;4.90;1.25;;;;;;;;;;5014533;28;20036;-63
2023/02/26 11:04:57;;;;;;;5.30;0.98;;;;;;;;;;5014780;28;20084;-63
2023/02/26 11:07:24;;;;;;;5.78;1.05;;;;;;;;;;5029149;28;20025;-63
2023/02/26 11:09:50;;;;;;;7.38;1.65;;;;;;;;;;5043831;28;20397;-63
2023/02/26 11:12:17;;;;;;;5.07;0.90;;;;;;;;;;5054550;28;20044;-63
2023/02/26 11:14:47;;;;;;;4.75;0.82;;;;;;;;;;5038288;28;20406;-63
2023/02/26 11:17:18;;;;;;;6.60;0.80;;;;;;;;;;5033045;28;20060;-63
2023/02/26 11:19:52;;;;;;;3.67;0.90;;;;;;;;;;5052869;28;20124;-63
2023/02/26 11:22:18;;;;;;;6.55;0.90;;;;;;;;;;5033348;28;20033;-63
2023/02/26 11:24:46;;;;;;;8.48;1.23;;;;;;;;;;5034201;28;20104;-63
2023/02/26 11:27:14;;;;;;;3.53;1.13;;;;;;;;;;5033993;28;20485;-63
2023/02/26 11:29:42;;;;;;;3.53;1.10;;;;;;;;;;5033995;28;20017;-62
2023/02/26 11:32:31;;;;;;;3.08;1.00;;;;;;;;;;5033926;28;20540;-63
2023/02/26 11:34:57;;;;;;;6.85;1.60;;;;;;;;;;5033503;28;20043;-65
2023/02/26 11:37:27;;;;;;;12.90;1.20;;;;;;;;;;5033879;28;20021;-64
2023/02/26 11:40:04;;;;;;;5.18;1.02;;;;;;;;;;5033548;28;20452;-62
2023/02/26 11:42:35;;;;;;;6.88;1.17;;;;;;;;;;5033080;28;20068;-61
2023/02/26 11:45:01;;;;;;;7.55;1.40;;;;;;;;;;5033659;28;20026;-62
2023/02/26 11:47:29;;;;;;;9.88;2.00;;;;;;;;;;5033799;28;20454;-62
2023/02/26 11:50:00;;;;;;;8.95;1.65;;;;;;;;;;5043144;28;20393;-66
2023/02/26 11:52:32;;;;;;;4.72;1.17;;;;;;;;;;5039369;28;20109;-66
2023/02/26 11:55:15;;;;;;;9.02;1.35;;;;;;;;;;5049360;28;20029;-66
2023/02/26 11:57:41;;;;;;;6.47;1.58;;;;;;;;;;5038664;28;20033;-66
2023/02/26 12:00:17;;;;;;;9.98;2.13;;;;;;;;;;5042160;28;20495;-64
2023/02/26 12:02:43;;;;;;;6.57;0.93;;;;;;;;;;5048951;28;20033;-63
2023/02/26 12:05:11;;;;;;;7.25;1.52;;;;;;;;;;5036079;28;20032;-65
2023/02/26 12:07:37;;;;;;;4.43;1.17;;;;;;;;;;5046282;28;20030;-66
2023/02/26 12:10:10;;;;;;;8.23;1.63;;;;;;;;;;5042747;28;20032;-62
2023/02/26 12:12:37;;;;;;;8.50;1.65;;;;;;;;;;5037554;28;20102;-61
2023/02/26 12:15:17;;;;;;;7.78;2.42;;;;;;;;;;5049366;28;20074;-66
2023/02/26 12:17:58;;;;;;;7.53;1.42;;;;;;;;;;5040028;28;20029;-62
2023/02/26 12:20:34;;;;;;;16.15;1.92;;;;;;;;;;5039229;28;20068;-63
2023/02/26 12:22:59;;;;;;;8.00;1.73;;;;;;;;;;5048822;28;20078;-61
2023/02/26 12:25:27;;;;;;;4.95;1.42;;;;;;;;;;5037132;28;20509;-64
2023/02/26 12:28:02;;;;;;;8.68;2.28;;;;;;;;;;5043610;28;20071;-65
2023/02/26 12:30:43;;;;;;;4.80;1.55;;;;;;;;;;5046031;28;20029;-65
2023/02/26 12:33:17;;;;;;;5.97;1.45;;;;;;;;;;5034094;28;20037;-62
2023/02/26 12:35:43;;;;;;;5.78;1.25;;;;;;;;;;5039082;28;20416;-61
2023/02/26 12:38:16;;;;;;;5.85;1.65;;;;;;;;;;5041405;28;20120;-61
2023/02/26 12:40:47;;;;;;;5.45;1.20;;;;;;;;;;5035881;28;20037;-61
2023/02/26 12:43:31;;;;;;;8.15;1.45;;;;;;;;;;5040125;28;20076;-60
2023/02/26 12:46:00;;;;;;;5.63;1.17;;;;;;;;;;5041774;28;20025;-64
2023/02/26 12:48:32;;;;;;;3.22;1.10;;;;;;;;;;5043241;28;20024;-64
2023/02/26 12:51:01;;;;;;;7.45;1.75;;;;;;;;;;5046031;28;20017;-61
2023/02/26 12:53:52;;;;;;;8.45;1.88;;;;;;;;;;5034618;28;20444;-61
2023/02/26 12:56:18;;;;;;;3.50;1.08;;;;;;;;;;5039953;28;20025;-67
2023/02/26 12:59:02;;;;;;;5.22;1.30;;;;;;;;;;5041852;28;20037;-64
2023/02/26 13:01:40;;;;;;;8.20;1.30;;;;;;;;;;5038092;28;20057;-61
2023/02/26 13:04:15;;;;;;;4.18;1.20;;;;;;;;;;5047640;28;20095;-61
2023/02/26 13:06:50;;;;;;;5.68;1.08;;;;;;;;;;5040301;28;20029;-64
2023/02/26 13:09:31;;;;;;;4.82;1.25;;;;;;;;;;5034220;28;20032;-61
2023/02/26 13:12:03;;;;;;;7.80;1.77;;;;;;;;;;5032974;28;20546;-61
2023/02/26 13:14:38;;;;;;;3.97;1.17;;;;;;;;;;5041353;28;20028;-63
2023/02/26 13:17:04;;;;;;;;;;;;;;;;;;5030967;28;20112;-62
2023/02/26 13:19:30;;;;;;;;;;;;;;;;;;5033579;28;20325;-63
2023/02/26 13:21:56;;;;;;;;;;;;;;;;;;5036751;28;19916;-61
2023/02/26 13:24:26;;;;;;;2.88;0.80;;;;;;;;;;5046073;28;19927;-62
2023/02/26 13:26:53;;;;;;;4.80;1.10;;;;;;;;;;5031041;28;20028;-60
2023/02/26 13:29:46;;;;;;;4.05;0.93;;;;;;;;;;5038886;28;20031;-62
2023/02/26 13:32:16;;;;;;;4.25;1.00;;;;;;;;;;5034872;28;20048;-61
2023/02/26 13:34:42;;;;;;;4.88;0.80;;;;;;;;;;5039896;28;20100;-62
2023/02/26 13:37:18;;;;;;;2.40;0.90;;;;;;;;;;5039352;28;20136;-60
2023/02/26 13:39:46;;;;;;;3.13;0.70;;;;;;;;;;5039685;28;20095;-61
2023/02/26 13:42:39;;;;;;;1.75;0.68;;;;;;;;;;5039669;28;20510;-61
2023/02/26 13:45:11;;;;;;;3.50;0.90;;;;;;;;;;5016786;28;20045;-62
2023/02/26 13:47:44;;;;;;;3.03;0.93;;;;;;;;;;5035747;28;20096;-63
2023/02/26 13:50:13;;;;;;;5.43;0.70;;;;;;;;;;5031378;28;20034;-65
2023/02/26 13:52:49;;;;;;;5.47;0.70;;;;;;;;;;5031482;28;20052;-64
2023/02/26 13:55:34;;;;;;;2.72;0.80;;;;;;;;;;5038534;28;20037;-63
2023/02/26 13:58:15;;;;;;;5.47;0.73;;;;;;;;;;5041087;28;20021;-64
2023/02/26 14:00:46;;;;;;;3.53;1.05;;;;;;;;;;5050011;28;20424;-62
2023/02/26 14:03:14;;;;;;;4.20;0.77;;;;;;;;;;5039097;28;20029;-62
2023/02/26 14:05:47;;;;;;;3.58;0.70;;;;;;;;;;5046993;28;20171;-63
2023/02/26 14:08:22;;;;;;;3.60;0.98;;;;;;;;;;5039189;28;20464;-61
2023/02/26 14:10:48;;;;;;;3.10;0.88;;;;;;;;;;5042902;28;20068;-61
2023/02/26 14:13:14;;;;;;;3.22;0.90;;;;;;;;;;5051126;28;20750;-61
2023/02/26 14:15:53;;;;;;;5.65;1.40;;;;;;;;;;5047906;28;20033;-61
2023/02/26 14:18:20;;;;;;;5.93;1.73;;;;;;;;;;5034089;28;20044;-61
2023/02/26 14:20:46;;;;;;;3.08;0.90;;;;;;;;;;5034266;28;20032;-62
2023/02/26 14:23:19;;;;;;;6.18;1.70;;;;;;;;;;5034843;28;20029;-61
2023/02/26 14:25:45;;;;;;;8.52;1.23;;;;;;;;;;5034206;28;20548;-62
2023/02/26 14:28:17;;;;;;;8.38;1.75;;;;;;;;;;5046530;28;20108;-63
2023/02/26 14:30:47;;;;;;;5.97;1.50;;;;;;;;;;5034946;28;20105;-61
2023/02/26 14:33:15;;;;;;;7.85;1.33;;;;;;;;;;5035354;28;20017;-64
2023/02/26 14:35:44;;;;;;;8.07;1.88;;;;;;;;;;5039576;28;20040;-64
2023/02/26 14:38:12;;;;;;;8.98;1.30;;;;;;;;;;5044255;28;20032;-62
2023/02/26 14:40:47;;;;;;;7.75;1.42;;;;;;;;;;5043012;28;20032;-61
2023/02/26 14:43:18;;;;;;;5.47;1.37;;;;;;;;;;5035005;28;20022;-62
2023/02/26 14:45:44;;;;;;;4.32;1.20;;;;;;;;;;5046369;28;20029;-62
2023/02/26 14:48:15;;;;;;;6.07;1.50;;;;;;;;;;5049768;28;20033;-63
2023/02/26 14:50:47;;;;;;;8.93;1.67;;;;;;;;;;5034477;28;20076;-62
2023/02/26 14:53:32;;;;;;;4.68;1.20;;;;;;;;;;5036837;28;20555;-61
2023/02/26 14:56:09;;;;;;;7.20;2.45;;;;;;;;;;5054536;28;20029;-62
2023/02/26 14:58:45;;;;;;;10.00;1.70;;;;;;;;;;5040185;28;20048;-62